sensor_id;sensor_type;location;lat;lon;timestamp;P1;durP1;ratioP1;P2;durP2;ratioP2
49444;SDS011;35323;43.080;-81.378;2023-05-08T00:00:46;7.30;;;5.63;;
49444;SDS011;35323;43.080;-81.378;2023-05-08T00:03:15;8.32;;;6.30;;
49444;SDS011;35323;43.080;-81.378;2023-05-08T00:05:42;10.93;;;6.93;;
49444;SDS011;35323;43.080;-81.378;2023-05-08T00:08:10;6.55;;;5.85;;
49444;SDS011;35323;43.080;-81.378;2023-05-08T00:10:37;8.48;;;5.35;;
49444;SDS011;35323;43.080;-81.378;2023-05-08T00:13:05;6.70;;;6.10;;
49444;SDS011;35323;43.080;-81.378;2023-05-08T00:15:34;8.82;;;5.47;;
49444;SDS011;35323;43.080;-81.378;2023-05-08T00:18:02;9.40;;;6.93;;
49444;SDS011;35323;43.080;-81.378;2023-05-08T00:20:30;15.95;;;6.93;;
49444;SDS011;35323;43.080;-81.378;2023-05-08T00:22:57;6.57;;;5.90;;
49444;SDS011;35323;43.080;-81.378;2023-05-08T00:25:25;6.57;;;5.97;;
49444;SDS011;35323;43.080;-81.378;2023-05-08T00:27:53;6.30;;;5.35;;
49444;SDS011;35323;43.080;-81.378;2023-05-08T00:30:21;8.15;;;6.10;;
49444;SDS011;35323;43.080;-81.378;2023-05-08T00:32:49;8.73;;;6.03;;
49444;SDS011;35323;43.080;-81.378;2023-05-08T00:35:16;7.13;;;5.32;;
49444;SDS011;35323;43.080;-81.378;2023-05-08T00:37:44;8.02;;;5.68;;
49444;SDS011;35323;43.080;-81.378;2023-05-08T00:40:11;7.43;;;5.63;;
49444;SDS011;35323;43.080;-81.378;2023-05-08T00:42:39;6.45;;;4.93;;
49444;SDS011;35323;43.080;-81.378;2023-05-08T00:45:07;5.93;;;5.43;;
49444;SDS011;35323;43.080;-81.378;2023-05-08T00:47:35;10.02;;;5.28;;
49444;SDS011;35323;43.080;-81.378;2023-05-08T00:50:03;8.93;;;5.20;;
49444;SDS011;35323;43.080;-81.378;2023-05-08T00:52:31;7.60;;;6.07;;
49444;SDS011;35323;43.080;-81.378;2023-05-08T00:55:00;8.45;;;4.57;;
49444;SDS011;35323;43.080;-81.378;2023-05-08T00:57:28;9.05;;;5.35;;
49444;SDS011;35323;43.080;-81.378;2023-05-08T00:59:57;7.40;;;5.15;;
49444;SDS011;35323;43.080;-81.378;2023-05-08T01:02:26;9.07;;;5.35;;
49444;SDS011;35323;43.080;-81.378;2023-05-08T01:04:54;9.75;;;5.13;;
49444;SDS011;35323;43.080;-81.378;2023-05-08T01:07:22;5.65;;;4.10;;
49444;SDS011;35323;43.080;-81.378;2023-05-08T01:09:49;5.72;;;4.82;;
49444;SDS011;35323;43.080;-81.378;2023-05-08T01:15:03;5.80;;;4.93;;
49444;SDS011;35323;43.080;-81.378;2023-05-08T01:22:54;6.13;;;5.57;;
49444;SDS011;35323;43.080;-81.378;2023-05-08T01:31:02;5.57;;;4.88;;
49444;SDS011;35323;43.080;-81.378;2023-05-08T01:33:44;8.13;;;5.13;;
49444;SDS011;35323;43.080;-81.378;2023-05-08T01:36:24;6.97;;;4.90;;
49444;SDS011;35323;43.080;-81.378;2023-05-08T01:39:09;6.90;;;4.77;;
49444;SDS011;35323;43.080;-81.378;2023-05-08T01:41:40;5.88;;;5.28;;
49444;SDS011;35323;43.080;-81.378;2023-05-08T01:44:14;6.15;;;4.68;;
49444;SDS011;35323;43.080;-81.378;2023-05-08T01:46:44;6.78;;;5.90;;
49444;SDS011;35323;43.080;-81.378;2023-05-08T01:49:37;4.93;;;4.38;;
49444;SDS011;35323;43.080;-81.378;2023-05-08T01:52:04;5.63;;;4.25;;
49444;SDS011;35323;43.080;-81.378;2023-05-08T01:54:35;5.75;;;3.75;;
49444;SDS011;35323;43.080;-81.378;2023-05-08T01:57:05;5.10;;;4.25;;
49444;SDS011;35323;43.080;-81.378;2023-05-08T01:59:35;4.72;;;4.07;;
49444;SDS011;35323;43.080;-81.378;2023-05-08T02:02:04;5.35;;;4.60;;
49444;SDS011;35323;43.080;-81.378;2023-05-08T02:04:33;4.28;;;3.90;;
49444;SDS011;35323;43.080;-81.378;2023-05-08T02:07:00;6.45;;;4.88;;
49444;SDS011;35323;43.080;-81.378;2023-05-08T02:09:28;5.28;;;4.10;;
49444;SDS011;35323;43.080;-81.378;2023-05-08T02:11:57;5.30;;;3.90;;
49444;SDS011;35323;43.080;-81.378;2023-05-08T02:14:25;6.40;;;4.03;;
49444;SDS011;35323;43.080;-81.378;2023-05-08T02:16:54;6.85;;;4.65;;
49444;SDS011;35323;43.080;-81.378;2023-05-08T02:19:23;5.65;;;4.72;;
49444;SDS011;35323;43.080;-81.378;2023-05-08T02:21:52;4.82;;;4.00;;
49444;SDS011;35323;43.080;-81.378;2023-05-08T02:24:21;6.70;;;5.18;;
49444;SDS011;35323;43.080;-81.378;2023-05-08T02:26:50;5.25;;;4.70;;
49444;SDS011;35323;43.080;-81.378;2023-05-08T02:29:20;5.00;;;4.53;;
49444;SDS011;35323;43.080;-81.378;2023-05-08T02:31:48;5.88;;;5.03;;
49444;SDS011;35323;43.080;-81.378;2023-05-08T02:34:17;6.10;;;5.13;;
49444;SDS011;35323;43.080;-81.378;2023-05-08T02:36:45;10.88;;;7.47;;
49444;SDS011;35323;43.080;-81.378;2023-05-08T02:39:13;8.80;;;5.05;;
49444;SDS011;35323;43.080;-81.378;2023-05-08T02:41:41;6.07;;;4.50;;
49444;SDS011;35323;43.080;-81.378;2023-05-08T02:44:09;6.32;;;5.45;;
49444;SDS011;35323;43.080;-81.378;2023-05-08T02:49:26;5.40;;;3.95;;
49444;SDS011;35323;43.080;-81.378;2023-05-08T02:51:58;6.22;;;5.65;;
49444;SDS011;35323;43.080;-81.378;2023-05-08T02:56:59;5.10;;;4.60;;
49444;SDS011;35323;43.080;-81.378;2023-05-08T02:59:29;9.15;;;5.03;;
49444;SDS011;35323;43.080;-81.378;2023-05-08T03:02:14;6.45;;;4.72;;
49444;SDS011;35323;43.080;-81.378;2023-05-08T03:04:47;7.88;;;4.78;;
49444;SDS011;35323;43.080;-81.378;2023-05-08T03:07:18;6.35;;;5.07;;
49444;SDS011;35323;43.080;-81.378;2023-05-08T03:09:49;8.05;;;5.43;;
49444;SDS011;35323;43.080;-81.378;2023-05-08T03:12:19;7.38;;;6.28;;
49444;SDS011;35323;43.080;-81.378;2023-05-08T03:15:05;5.93;;;5.28;;
49444;SDS011;35323;43.080;-81.378;2023-05-08T03:17:34;9.02;;;6.32;;
49444;SDS011;35323;43.080;-81.378;2023-05-08T03:20:04;9.02;;;5.20;;
49444;SDS011;35323;43.080;-81.378;2023-05-08T03:22:33;7.38;;;5.97;;
49444;SDS011;35323;43.080;-81.378;2023-05-08T03:25:05;6.40;;;5.05;;
49444;SDS011;35323;43.080;-81.378;2023-05-08T03:27:35;5.55;;;5.00;;
49444;SDS011;35323;43.080;-81.378;2023-05-08T03:30:03;7.32;;;6.32;;
49444;SDS011;35323;43.080;-81.378;2023-05-08T03:32:31;11.43;;;6.82;;
49444;SDS011;35323;43.080;-81.378;2023-05-08T03:35:01;6.78;;;6.07;;
49444;SDS011;35323;43.080;-81.378;2023-05-08T03:37:29;8.05;;;4.97;;
49444;SDS011;35323;43.080;-81.378;2023-05-08T03:39:57;8.68;;;5.30;;
49444;SDS011;35323;43.080;-81.378;2023-05-08T03:42:25;9.23;;;6.72;;
49444;SDS011;35323;43.080;-81.378;2023-05-08T03:44:55;7.13;;;5.93;;
49444;SDS011;35323;43.080;-81.378;2023-05-08T03:47:23;8.88;;;5.10;;
49444;SDS011;35323;43.080;-81.378;2023-05-08T03:49:54;6.53;;;5.07;;
49444;SDS011;35323;43.080;-81.378;2023-05-08T03:52:21;5.65;;;5.15;;
49444;SDS011;35323;43.080;-81.378;2023-05-08T03:54:50;5.53;;;5.03;;
49444;SDS011;35323;43.080;-81.378;2023-05-08T03:57:17;6.80;;;4.22;;
49444;SDS011;35323;43.080;-81.378;2023-05-08T04:02:20;5.75;;;5.07;;
49444;SDS011;35323;43.080;-81.378;2023-05-08T04:05:16;5.47;;;4.97;;
49444;SDS011;35323;43.080;-81.378;2023-05-08T04:07:48;5.63;;;4.43;;
49444;SDS011;35323;43.080;-81.378;2023-05-08T04:15:33;5.93;;;3.88;;
49444;SDS011;35323;43.080;-81.378;2023-05-08T04:18:08;5.65;;;3.80;;
49444;SDS011;35323;43.080;-81.378;2023-05-08T04:20:38;4.78;;;3.95;;
49444;SDS011;35323;43.080;-81.378;2023-05-08T04:23:09;6.35;;;4.22;;
49444;SDS011;35323;43.080;-81.378;2023-05-08T04:25:40;5.03;;;4.53;;
49444;SDS011;35323;43.080;-81.378;2023-05-08T04:28:09;6.03;;;5.53;;
49444;SDS011;35323;43.080;-81.378;2023-05-08T04:30:38;5.18;;;4.05;;
49444;SDS011;35323;43.080;-81.378;2023-05-08T04:33:06;6.78;;;5.00;;
49444;SDS011;35323;43.080;-81.378;2023-05-08T04:35:34;7.40;;;6.70;;
49444;SDS011;35323;43.080;-81.378;2023-05-08T04:38:02;4.72;;;4.22;;
49444;SDS011;35323;43.080;-81.378;2023-05-08T04:40:32;6.07;;;3.60;;
49444;SDS011;35323;43.080;-81.378;2023-05-08T04:42:59;5.97;;;5.38;;
49444;SDS011;35323;43.080;-81.378;2023-05-08T04:45:27;5.80;;;3.58;;
49444;SDS011;35323;43.080;-81.378;2023-05-08T04:47:54;6.88;;;4.82;;
49444;SDS011;35323;43.080;-81.378;2023-05-08T04:50:22;5.32;;;4.88;;
49444;SDS011;35323;43.080;-81.378;2023-05-08T04:52:53;5.70;;;5.15;;
49444;SDS011;35323;43.080;-81.378;2023-05-08T04:55:20;6.35;;;4.90;;
49444;SDS011;35323;43.080;-81.378;2023-05-08T04:57:48;6.53;;;4.70;;
49444;SDS011;35323;43.080;-81.378;2023-05-08T05:00:16;5.13;;;4.60;;
49444;SDS011;35323;43.080;-81.378;2023-05-08T05:02:47;5.60;;;5.10;;
49444;SDS011;35323;43.080;-81.378;2023-05-08T05:05:15;11.50;;;5.15;;
49444;SDS011;35323;43.080;-81.378;2023-05-08T05:07:42;5.47;;;4.43;;
49444;SDS011;35323;43.080;-81.378;2023-05-08T05:10:10;7.38;;;4.65;;
49444;SDS011;35323;43.080;-81.378;2023-05-08T05:12:40;7.00;;;4.88;;
49444;SDS011;35323;43.080;-81.378;2023-05-08T05:15:09;8.43;;;6.00;;
49444;SDS011;35323;43.080;-81.378;2023-05-08T05:17:36;7.18;;;5.35;;
49444;SDS011;35323;43.080;-81.378;2023-05-08T05:20:05;5.82;;;5.13;;
49444;SDS011;35323;43.080;-81.378;2023-05-08T05:22:34;6.72;;;4.82;;
49444;SDS011;35323;43.080;-81.378;2023-05-08T05:25:02;7.38;;;5.03;;
49444;SDS011;35323;43.080;-81.378;2023-05-08T05:27:30;6.53;;;6.03;;
49444;SDS011;35323;43.080;-81.378;2023-05-08T05:29:57;6.30;;;4.72;;
49444;SDS011;35323;43.080;-81.378;2023-05-08T05:32:25;5.07;;;4.53;;
49444;SDS011;35323;43.080;-81.378;2023-05-08T05:34:53;9.02;;;7.00;;
49444;SDS011;35323;43.080;-81.378;2023-05-08T05:37:23;4.70;;;4.07;;
49444;SDS011;35323;43.080;-81.378;2023-05-08T05:39:50;8.43;;;5.40;;
49444;SDS011;35323;43.080;-81.378;2023-05-08T05:42:18;9.65;;;7.45;;
49444;SDS011;35323;43.080;-81.378;2023-05-08T05:44:46;7.63;;;6.10;;
49444;SDS011;35323;43.080;-81.378;2023-05-08T05:47:14;9.73;;;6.88;;
49444;SDS011;35323;43.080;-81.378;2023-05-08T05:49:42;10.43;;;7.95;;
49444;SDS011;35323;43.080;-81.378;2023-05-08T05:52:13;11.25;;;9.18;;
49444;SDS011;35323;43.080;-81.378;2023-05-08T05:54:40;12.95;;;8.57;;
49444;SDS011;35323;43.080;-81.378;2023-05-08T05:57:08;11.43;;;9.52;;
49444;SDS011;35323;43.080;-81.378;2023-05-08T05:59:36;8.85;;;7.95;;
49444;SDS011;35323;43.080;-81.378;2023-05-08T06:02:04;11.90;;;10.32;;
49444;SDS011;35323;43.080;-81.378;2023-05-08T06:04:34;9.82;;;7.65;;
49444;SDS011;35323;43.080;-81.378;2023-05-08T06:07:01;11.57;;;8.85;;
49444;SDS011;35323;43.080;-81.378;2023-05-08T06:09:29;10.52;;;7.38;;
49444;SDS011;35323;43.080;-81.378;2023-05-08T06:11:56;10.20;;;7.95;;
49444;SDS011;35323;43.080;-81.378;2023-05-08T06:14:24;9.95;;;8.07;;
49444;SDS011;35323;43.080;-81.378;2023-05-08T06:16:51;10.52;;;7.93;;
49444;SDS011;35323;43.080;-81.378;2023-05-08T06:19:19;10.55;;;7.50;;
49444;SDS011;35323;43.080;-81.378;2023-05-08T06:21:46;10.55;;;7.68;;
49444;SDS011;35323;43.080;-81.378;2023-05-08T06:24:14;12.32;;;9.32;;
49444;SDS011;35323;43.080;-81.378;2023-05-08T06:26:42;10.77;;;8.55;;
49444;SDS011;35323;43.080;-81.378;2023-05-08T06:29:09;8.38;;;7.47;;
49444;SDS011;35323;43.080;-81.378;2023-05-08T06:31:37;9.48;;;7.80;;
49444;SDS011;35323;43.080;-81.378;2023-05-08T06:34:05;12.68;;;7.85;;
49444;SDS011;35323;43.080;-81.378;2023-05-08T06:36:35;9.35;;;7.55;;
49444;SDS011;35323;43.080;-81.378;2023-05-08T06:39:04;11.10;;;8.02;;
49444;SDS011;35323;43.080;-81.378;2023-05-08T06:41:32;7.88;;;6.40;;
49444;SDS011;35323;43.080;-81.378;2023-05-08T06:43:59;10.45;;;8.73;;
49444;SDS011;35323;43.080;-81.378;2023-05-08T06:46:27;8.80;;;7.30;;
49444;SDS011;35323;43.080;-81.378;2023-05-08T06:48:55;9.77;;;7.93;;
49444;SDS011;35323;43.080;-81.378;2023-05-08T06:51:23;10.48;;;7.78;;
49444;SDS011;35323;43.080;-81.378;2023-05-08T06:53:50;8.27;;;7.53;;
49444;SDS011;35323;43.080;-81.378;2023-05-08T06:56:18;8.98;;;6.97;;
49444;SDS011;35323;43.080;-81.378;2023-05-08T06:58:48;9.55;;;7.05;;
49444;SDS011;35323;43.080;-81.378;2023-05-08T07:01:30;7.75;;;6.82;;
49444;SDS011;35323;43.080;-81.378;2023-05-08T07:03:58;9.25;;;8.35;;
49444;SDS011;35323;43.080;-81.378;2023-05-08T07:06:25;7.45;;;6.50;;
49444;SDS011;35323;43.080;-81.378;2023-05-08T07:08:54;9.02;;;7.78;;
49444;SDS011;35323;43.080;-81.378;2023-05-08T07:11:21;8.63;;;6.70;;
49444;SDS011;35323;43.080;-81.378;2023-05-08T07:13:49;10.10;;;7.45;;
49444;SDS011;35323;43.080;-81.378;2023-05-08T07:16:20;7.72;;;6.93;;
49444;SDS011;35323;43.080;-81.378;2023-05-08T07:18:48;8.00;;;7.05;;
49444;SDS011;35323;43.080;-81.378;2023-05-08T07:21:15;7.38;;;5.45;;
49444;SDS011;35323;43.080;-81.378;2023-05-08T07:23:44;5.38;;;4.88;;
49444;SDS011;35323;43.080;-81.378;2023-05-08T07:26:14;11.70;;;5.97;;
49444;SDS011;35323;43.080;-81.378;2023-05-08T07:28:41;5.40;;;4.60;;
49444;SDS011;35323;43.080;-81.378;2023-05-08T07:31:09;5.82;;;5.22;;
49444;SDS011;35323;43.080;-81.378;2023-05-08T07:33:36;6.65;;;5.53;;
49444;SDS011;35323;43.080;-81.378;2023-05-08T07:36:04;6.30;;;5.53;;
49444;SDS011;35323;43.080;-81.378;2023-05-08T07:38:32;6.70;;;4.68;;
49444;SDS011;35323;43.080;-81.378;2023-05-08T07:40:59;7.53;;;6.32;;
49444;SDS011;35323;43.080;-81.378;2023-05-08T07:43:28;6.90;;;6.20;;
49444;SDS011;35323;43.080;-81.378;2023-05-08T07:45:55;6.18;;;4.22;;
49444;SDS011;35323;43.080;-81.378;2023-05-08T07:48:23;5.60;;;5.00;;
49444;SDS011;35323;43.080;-81.378;2023-05-08T07:50:51;6.38;;;5.03;;
49444;SDS011;35323;43.080;-81.378;2023-05-08T07:53:18;6.60;;;5.18;;
49444;SDS011;35323;43.080;-81.378;2023-05-08T07:55:46;3.97;;;3.42;;
49444;SDS011;35323;43.080;-81.378;2023-05-08T07:58:14;4.20;;;3.80;;
49444;SDS011;35323;43.080;-81.378;2023-05-08T08:00:41;4.82;;;4.35;;
49444;SDS011;35323;43.080;-81.378;2023-05-08T08:03:10;5.25;;;4.75;;
49444;SDS011;35323;43.080;-81.378;2023-05-08T08:05:37;7.43;;;4.63;;
49444;SDS011;35323;43.080;-81.378;2023-05-08T08:08:05;6.30;;;5.32;;
49444;SDS011;35323;43.080;-81.378;2023-05-08T08:10:33;8.27;;;5.38;;
49444;SDS011;35323;43.080;-81.378;2023-05-08T08:13:00;5.25;;;4.72;;
49444;SDS011;35323;43.080;-81.378;2023-05-08T08:15:29;6.72;;;4.93;;
49444;SDS011;35323;43.080;-81.378;2023-05-08T08:17:56;9.73;;;5.70;;
49444;SDS011;35323;43.080;-81.378;2023-05-08T08:20:24;4.85;;;4.15;;
49444;SDS011;35323;43.080;-81.378;2023-05-08T08:22:51;7.60;;;4.65;;
49444;SDS011;35323;43.080;-81.378;2023-05-08T08:25:19;4.53;;;3.47;;
49444;SDS011;35323;43.080;-81.378;2023-05-08T08:27:47;4.68;;;3.35;;
49444;SDS011;35323;43.080;-81.378;2023-05-08T08:30:15;4.85;;;3.53;;
49444;SDS011;35323;43.080;-81.378;2023-05-08T08:32:44;5.38;;;2.60;;
49444;SDS011;35323;43.080;-81.378;2023-05-08T08:35:12;2.70;;;2.33;;
49444;SDS011;35323;43.080;-81.378;2023-05-08T08:37:41;2.75;;;2.15;;
49444;SDS011;35323;43.080;-81.378;2023-05-08T08:40:09;6.72;;;4.07;;
49444;SDS011;35323;43.080;-81.378;2023-05-08T08:42:36;2.42;;;1.88;;
49444;SDS011;35323;43.080;-81.378;2023-05-08T08:45:04;3.40;;;2.60;;
49444;SDS011;35323;43.080;-81.378;2023-05-08T08:47:35;3.25;;;2.05;;
49444;SDS011;35323;43.080;-81.378;2023-05-08T08:50:07;3.65;;;2.47;;
49444;SDS011;35323;43.080;-81.378;2023-05-08T08:55:30;3.05;;;2.65;;
49444;SDS011;35323;43.080;-81.378;2023-05-08T08:58:02;2.63;;;2.42;;
49444;SDS011;35323;43.080;-81.378;2023-05-08T09:00:33;1.92;;;1.77;;
49444;SDS011;35323;43.080;-81.378;2023-05-08T09:03:04;2.88;;;2.05;;
49444;SDS011;35323;43.080;-81.378;2023-05-08T09:05:34;2.30;;;2.10;;
49444;SDS011;35323;43.080;-81.378;2023-05-08T09:08:02;3.13;;;2.40;;
49444;SDS011;35323;43.080;-81.378;2023-05-08T09:10:29;2.92;;;2.67;;
49444;SDS011;35323;43.080;-81.378;2023-05-08T09:13:00;2.30;;;2.10;;
49444;SDS011;35323;43.080;-81.378;2023-05-08T09:15:27;3.25;;;2.28;;
49444;SDS011;35323;43.080;-81.378;2023-05-08T09:17:55;3.97;;;2.00;;
49444;SDS011;35323;43.080;-81.378;2023-05-08T09:20:22;2.17;;;1.90;;
49444;SDS011;35323;43.080;-81.378;2023-05-08T09:22:51;2.28;;;1.90;;
49444;SDS011;35323;43.080;-81.378;2023-05-08T09:25:22;3.00;;;2.63;;
49444;SDS011;35323;43.080;-81.378;2023-05-08T09:27:52;2.92;;;2.17;;
49444;SDS011;35323;43.080;-81.378;2023-05-08T09:30:20;4.80;;;3.25;;
49444;SDS011;35323;43.080;-81.378;2023-05-08T09:32:51;3.13;;;2.92;;
49444;SDS011;35323;43.080;-81.378;2023-05-08T09:35:34;3.55;;;2.28;;
49444;SDS011;35323;43.080;-81.378;2023-05-08T09:38:02;2.22;;;2.03;;
49444;SDS011;35323;43.080;-81.378;2023-05-08T09:40:30;1.85;;;1.73;;
49444;SDS011;35323;43.080;-81.378;2023-05-08T09:42:57;2.15;;;1.60;;
49444;SDS011;35323;43.080;-81.378;2023-05-08T09:45:37;2.55;;;2.10;;
49444;SDS011;35323;43.080;-81.378;2023-05-08T09:48:06;8.38;;;2.63;;
49444;SDS011;35323;43.080;-81.378;2023-05-08T09:50:33;4.15;;;2.67;;
49444;SDS011;35323;43.080;-81.378;2023-05-08T09:53:01;3.05;;;2.78;;
49444;SDS011;35323;43.080;-81.378;2023-05-08T09:55:28;2.97;;;2.00;;
49444;SDS011;35323;43.080;-81.378;2023-05-08T09:58:12;2.72;;;1.85;;
49444;SDS011;35323;43.080;-81.378;2023-05-08T10:00:40;2.90;;;2.53;;
49444;SDS011;35323;43.080;-81.378;2023-05-08T10:03:08;2.78;;;2.30;;
49444;SDS011;35323;43.080;-81.378;2023-05-08T10:05:35;4.05;;;2.75;;
49444;SDS011;35323;43.080;-81.378;2023-05-08T10:08:21;3.45;;;2.78;;
49444;SDS011;35323;43.080;-81.378;2023-05-08T10:10:49;3.15;;;2.15;;
49444;SDS011;35323;43.080;-81.378;2023-05-08T10:13:17;7.07;;;2.75;;
49444;SDS011;35323;43.080;-81.378;2023-05-08T10:15:44;3.67;;;2.47;;
49444;SDS011;35323;43.080;-81.378;2023-05-08T10:18:18;2.30;;;2.10;;
49444;SDS011;35323;43.080;-81.378;2023-05-08T10:20:47;4.05;;;3.08;;
49444;SDS011;35323;43.080;-81.378;2023-05-08T10:23:15;3.25;;;3.00;;
49444;SDS011;35323;43.080;-81.378;2023-05-08T10:25:45;4.35;;;3.75;;
49444;SDS011;35323;43.080;-81.378;2023-05-08T10:28:17;4.22;;;3.22;;
49444;SDS011;35323;43.080;-81.378;2023-05-08T10:30:50;5.03;;;2.70;;
49444;SDS011;35323;43.080;-81.378;2023-05-08T10:33:21;4.20;;;2.90;;
49444;SDS011;35323;43.080;-81.378;2023-05-08T10:35:50;4.30;;;2.88;;
49444;SDS011;35323;43.080;-81.378;2023-05-08T10:38:17;4.90;;;2.63;;
49444;SDS011;35323;43.080;-81.378;2023-05-08T10:40:45;2.78;;;2.13;;
49444;SDS011;35323;43.080;-81.378;2023-05-08T10:43:13;9.10;;;4.47;;
49444;SDS011;35323;43.080;-81.378;2023-05-08T10:45:42;4.25;;;2.38;;
49444;SDS011;35323;43.080;-81.378;2023-05-08T10:48:22;3.35;;;2.63;;
49444;SDS011;35323;43.080;-81.378;2023-05-08T10:56:11;6.90;;;4.53;;
49444;SDS011;35323;43.080;-81.378;2023-05-08T10:58:39;2.53;;;2.33;;
49444;SDS011;35323;43.080;-81.378;2023-05-08T11:03:38;5.65;;;3.08;;
49444;SDS011;35323;43.080;-81.378;2023-05-08T11:06:07;5.28;;;2.70;;
49444;SDS011;35323;43.080;-81.378;2023-05-08T11:08:42;3.95;;;2.92;;
49444;SDS011;35323;43.080;-81.378;2023-05-08T11:19:17;2.33;;;2.05;;
49444;SDS011;35323;43.080;-81.378;2023-05-08T11:24:33;3.92;;;2.35;;
49444;SDS011;35323;43.080;-81.378;2023-05-08T11:27:02;2.20;;;2.00;;
49444;SDS011;35323;43.080;-81.378;2023-05-08T11:29:30;3.50;;;1.95;;
49444;SDS011;35323;43.080;-81.378;2023-05-08T11:31:57;2.90;;;2.13;;
49444;SDS011;35323;43.080;-81.378;2023-05-08T11:37:18;2.45;;;2.25;;
49444;SDS011;35323;43.080;-81.378;2023-05-08T11:39:47;4.18;;;1.90;;
49444;SDS011;35323;43.080;-81.378;2023-05-08T11:45:02;2.53;;;1.75;;
49444;SDS011;35323;43.080;-81.378;2023-05-08T11:50:17;5.65;;;2.03;;
49444;SDS011;35323;43.080;-81.378;2023-05-08T11:52:46;2.55;;;2.35;;
49444;SDS011;35323;43.080;-81.378;2023-05-08T11:55:17;2.42;;;2.22;;
49444;SDS011;35323;43.080;-81.378;2023-05-08T11:57:46;3.83;;;2.47;;
49444;SDS011;35323;43.080;-81.378;2023-05-08T12:00:16;5.07;;;2.35;;
49444;SDS011;35323;43.080;-81.378;2023-05-08T12:02:44;13.38;;;3.38;;
49444;SDS011;35323;43.080;-81.378;2023-05-08T12:05:13;4.55;;;2.33;;
49444;SDS011;35323;43.080;-81.378;2023-05-08T12:07:43;2.30;;;1.92;;
49444;SDS011;35323;43.080;-81.378;2023-05-08T12:10:13;2.22;;;2.00;;
49444;SDS011;35323;43.080;-81.378;2023-05-08T12:12:42;4.38;;;3.08;;
49444;SDS011;35323;43.080;-81.378;2023-05-08T12:15:14;3.42;;;2.95;;
49444;SDS011;35323;43.080;-81.378;2023-05-08T12:17:41;2.50;;;1.83;;
49444;SDS011;35323;43.080;-81.378;2023-05-08T12:20:10;1.98;;;1.65;;
49444;SDS011;35323;43.080;-81.378;2023-05-08T12:22:40;14.18;;;5.03;;
49444;SDS011;35323;43.080;-81.378;2023-05-08T12:25:09;5.05;;;2.25;;
49444;SDS011;35323;43.080;-81.378;2023-05-08T12:27:37;2.22;;;1.48;;
49444;SDS011;35323;43.080;-81.378;2023-05-08T12:30:06;4.13;;;2.78;;
49444;SDS011;35323;43.080;-81.378;2023-05-08T12:32:38;1.52;;;1.25;;
49444;SDS011;35323;43.080;-81.378;2023-05-08T12:35:07;3.77;;;1.57;;
49444;SDS011;35323;43.080;-81.378;2023-05-08T12:37:35;1.45;;;1.25;;
49444;SDS011;35323;43.080;-81.378;2023-05-08T12:40:03;2.42;;;1.48;;
49444;SDS011;35323;43.080;-81.378;2023-05-08T12:45:38;6.50;;;1.73;;
49444;SDS011;35323;43.080;-81.378;2023-05-08T12:48:06;3.20;;;1.98;;
49444;SDS011;35323;43.080;-81.378;2023-05-08T12:50:35;1.20;;;1.10;;
49444;SDS011;35323;43.080;-81.378;2023-05-08T12:53:03;2.17;;;1.30;;
49444;SDS011;35323;43.080;-81.378;2023-05-08T12:55:35;3.58;;;1.65;;
49444;SDS011;35323;43.080;-81.378;2023-05-08T13:00:44;4.47;;;1.38;;
49444;SDS011;35323;43.080;-81.378;2023-05-08T13:03:20;4.93;;;1.77;;
49444;SDS011;35323;43.080;-81.378;2023-05-08T13:05:48;2.20;;;1.83;;
49444;SDS011;35323;43.080;-81.378;2023-05-08T13:08:16;1.13;;;1.00;;
49444;SDS011;35323;43.080;-81.378;2023-05-08T13:10:48;2.03;;;1.23;;
49444;SDS011;35323;43.080;-81.378;2023-05-08T13:13:19;1.90;;;1.52;;
49444;SDS011;35323;43.080;-81.378;2023-05-08T13:15:47;2.38;;;1.25;;
49444;SDS011;35323;43.080;-81.378;2023-05-08T13:18:15;1.42;;;0.95;;
49444;SDS011;35323;43.080;-81.378;2023-05-08T13:20:43;2.88;;;2.17;;
49444;SDS011;35323;43.080;-81.378;2023-05-08T13:23:12;3.03;;;2.30;;
49444;SDS011;35323;43.080;-81.378;2023-05-08T13:25:39;3.70;;;2.20;;
49444;SDS011;35323;43.080;-81.378;2023-05-08T13:28:07;1.65;;;0.95;;
49444;SDS011;35323;43.080;-81.378;2023-05-08T13:30:35;2.88;;;1.60;;
49444;SDS011;35323;43.080;-81.378;2023-05-08T13:33:03;0.98;;;0.88;;
49444;SDS011;35323;43.080;-81.378;2023-05-08T13:35:32;1.05;;;0.95;;
49444;SDS011;35323;43.080;-81.378;2023-05-08T13:37:59;1.30;;;0.88;;
49444;SDS011;35323;43.080;-81.378;2023-05-08T13:40:27;2.20;;;1.33;;
49444;SDS011;35323;43.080;-81.378;2023-05-08T13:42:55;0.73;;;0.73;;
49444;SDS011;35323;43.080;-81.378;2023-05-08T13:45:23;3.88;;;1.40;;
49444;SDS011;35323;43.080;-81.378;2023-05-08T13:47:50;1.98;;;1.10;;
49444;SDS011;35323;43.080;-81.378;2023-05-08T13:50:18;1.52;;;1.20;;
49444;SDS011;35323;43.080;-81.378;2023-05-08T13:52:48;2.88;;;0.98;;
49444;SDS011;35323;43.080;-81.378;2023-05-08T13:55:19;2.85;;;1.17;;
49444;SDS011;35323;43.080;-81.378;2023-05-08T13:57:49;1.48;;;1.38;;
49444;SDS011;35323;43.080;-81.378;2023-05-08T14:00:16;3.10;;;1.30;;
49444;SDS011;35323;43.080;-81.378;2023-05-08T14:02:44;1.77;;;1.42;;
49444;SDS011;35323;43.080;-81.378;2023-05-08T14:05:13;3.22;;;0.98;;
49444;SDS011;35323;43.080;-81.378;2023-05-08T14:07:41;1.30;;;1.20;;
49444;SDS011;35323;43.080;-81.378;2023-05-08T14:10:09;1.05;;;0.90;;
49444;SDS011;35323;43.080;-81.378;2023-05-08T14:12:37;1.17;;;1.00;;
49444;SDS011;35323;43.080;-81.378;2023-05-08T14:15:06;7.72;;;1.90;;
49444;SDS011;35323;43.080;-81.378;2023-05-08T14:17:34;1.52;;;0.50;;
49444;SDS011;35323;43.080;-81.378;2023-05-08T14:20:02;0.68;;;0.55;;
49444;SDS011;35323;43.080;-81.378;2023-05-08T14:22:30;1.08;;;0.93;;
49444;SDS011;35323;43.080;-81.378;2023-05-08T14:24:57;1.17;;;1.05;;
49444;SDS011;35323;43.080;-81.378;2023-05-08T14:27:25;1.98;;;1.80;;
49444;SDS011;35323;43.080;-81.378;2023-05-08T14:29:53;1.05;;;0.70;;
49444;SDS011;35323;43.080;-81.378;2023-05-08T14:32:21;1.83;;;0.80;;
49444;SDS011;35323;43.080;-81.378;2023-05-08T14:34:49;1.92;;;0.80;;
49444;SDS011;35323;43.080;-81.378;2023-05-08T14:37:17;1.98;;;1.13;;
49444;SDS011;35323;43.080;-81.378;2023-05-08T14:39:45;1.30;;;0.88;;
49444;SDS011;35323;43.080;-81.378;2023-05-08T14:42:12;0.90;;;0.90;;
49444;SDS011;35323;43.080;-81.378;2023-05-08T14:44:48;1.13;;;0.60;;
49444;SDS011;35323;43.080;-81.378;2023-05-08T14:47:16;2.35;;;0.75;;
49444;SDS011;35323;43.080;-81.378;2023-05-08T14:49:44;2.92;;;0.70;;
49444;SDS011;35323;43.080;-81.378;2023-05-08T14:52:11;1.00;;;0.90;;
49444;SDS011;35323;43.080;-81.378;2023-05-08T14:54:39;3.50;;;0.80;;
49444;SDS011;35323;43.080;-81.378;2023-05-08T14:57:07;3.20;;;1.85;;
49444;SDS011;35323;43.080;-81.378;2023-05-08T14:59:35;0.73;;;0.43;;
49444;SDS011;35323;43.080;-81.378;2023-05-08T15:02:06;1.17;;;1.07;;
49444;SDS011;35323;43.080;-81.378;2023-05-08T15:04:34;0.98;;;0.77;;
49444;SDS011;35323;43.080;-81.378;2023-05-08T15:07:06;1.25;;;0.60;;
49444;SDS011;35323;43.080;-81.378;2023-05-08T15:09:34;2.15;;;1.08;;
49444;SDS011;35323;43.080;-81.378;2023-05-08T15:12:01;1.20;;;1.10;;
49444;SDS011;35323;43.080;-81.378;2023-05-08T15:14:29;0.50;;;0.50;;
49444;SDS011;35323;43.080;-81.378;2023-05-08T15:16:57;1.13;;;0.80;;
49444;SDS011;35323;43.080;-81.378;2023-05-08T15:19:24;4.25;;;1.25;;
49444;SDS011;35323;43.080;-81.378;2023-05-08T15:21:52;0.70;;;0.70;;
49444;SDS011;35323;43.080;-81.378;2023-05-08T15:24:19;1.45;;;0.73;;
49444;SDS011;35323;43.080;-81.378;2023-05-08T15:26:47;4.82;;;1.00;;
49444;SDS011;35323;43.080;-81.378;2023-05-08T15:29:14;3.30;;;0.90;;
49444;SDS011;35323;43.080;-81.378;2023-05-08T15:31:42;1.33;;;0.60;;
49444;SDS011;35323;43.080;-81.378;2023-05-08T15:34:09;1.83;;;0.68;;